Time;durP1;ratioP1;P1;durP2;ratioP2;P2;SDS_P1;SDS_P2;PMS_P1;PMS_P2;Temp;Humidity;BMP_temperature;BMP_pressure;BME280_temperature;BME280_humidity;BME280_pressure;Samples;Min_cycle;Max_cycle;Signal;HPM_P1;HPM_P2
2022/07/06 00:00:30;;;;;;;1.70;1.60;;;;;;;;;;4990985;28;20034;-84
2022/07/06 00:02:55;;;;;;;1.92;1.80;;;;;;;;;;4985024;28;20041;-83
2022/07/06 00:05:21;;;;;;;2.22;1.60;;;;;;;;;;4989691;28;20369;-84
2022/07/06 00:07:46;;;;;;;3.25;1.70;;;;;;;;;;4986844;28;20027;-84
2022/07/06 00:10:11;;;;;;;6.03;1.80;;;;;;;;;;4967875;28;20061;-84
2022/07/06 00:12:37;;;;;;;2.72;1.63;;;;;;;;;;4968380;28;20519;-84
2022/07/06 00:15:02;;;;;;;6.25;1.90;;;;;;;;;;4986030;28;20500;-84
2022/07/06 00:17:28;;;;;;;3.10;1.83;;;;;;;;;;4984509;28;20079;-85
2022/07/06 00:19:53;;;;;;;2.35;1.77;;;;;;;;;;4961089;28;20094;-85
2022/07/06 00:22:18;;;;;;;4.45;2.13;;;;;;;;;;4966081;28;20030;-83
2022/07/06 00:24:44;;;;;;;1.83;1.58;;;;;;;;;;4981846;28;20112;-83
2022/07/06 00:27:09;;;;;;;2.63;1.83;;;;;;;;;;4987992;28;20026;-83
2022/07/06 00:29:35;;;;;;;2.42;1.77;;;;;;;;;;4959884;28;20018;-84
2022/07/06 00:32:00;;;;;;;2.58;2.10;;;;;;;;;;4990058;28;20022;-83
2022/07/06 00:34:25;;;;;;;3.15;2.10;;;;;;;;;;4979959;28;20027;-83
2022/07/06 00:36:51;;;;;;;5.10;2.05;;;;;;;;;;4977546;28;20053;-83
2022/07/06 00:39:18;;;;;;;2.03;1.80;;;;;;;;;;4986258;28;20030;-83
2022/07/06 00:41:44;;;;;;;2.95;1.95;;;;;;;;;;4964320;28;20034;-83
2022/07/06 00:44:09;;;;;;;2.35;2.03;;;;;;;;;;4983268;28;20077;-84
2022/07/06 00:46:35;;;;;;;3.00;1.85;;;;;;;;;;4982639;28;20045;-84
2022/07/06 00:49:00;;;;;;;4.20;2.08;;;;;;;;;;4980961;28;20042;-84
2022/07/06 00:51:31;;;;;;;3.30;1.67;;;;;;;;;;4979476;28;20030;-84
2022/07/06 00:54:00;;;;;;;5.45;2.15;;;;;;;;;;4983251;28;20026;-84
2022/07/06 00:56:29;;;;;;;2.20;1.70;;;;;;;;;;4981455;28;20097;-84
2022/07/06 00:58:55;;;;;;;2.45;1.77;;;;;;;;;;4976609;28;20398;-83
2022/07/06 01:01:21;;;;;;;9.85;2.10;;;;;;;;;;5002544;28;20619;-87
2022/07/06 01:03:46;;;;;;;6.22;1.92;;;;;;;;;;4983830;28;20019;-83
2022/07/06 01:06:12;;;;;;;1.85;1.48;;;;;;;;;;4965934;28;20054;-84
2022/07/06 01:08:38;;;;;;;2.08;1.70;;;;;;;;;;4993157;28;20053;-83
2022/07/06 01:11:03;;;;;;;3.28;1.70;;;;;;;;;;4990587;28;20045;-83
2022/07/06 01:13:30;;;;;;;3.95;1.85;;;;;;;;;;4993311;28;20030;-84
2022/07/06 01:15:56;;;;;;;1.80;1.65;;;;;;;;;;4989840;28;20092;-83
2022/07/06 01:18:21;;;;;;;5.07;2.00;;;;;;;;;;4974659;28;20120;-83
2022/07/06 01:20:47;;;;;;;1.98;1.77;;;;;;;;;;4994160;28;20041;-83
2022/07/06 01:23:12;;;;;;;3.20;1.70;;;;;;;;;;4997048;28;20030;-82
2022/07/06 01:25:37;;;;;;;3.22;1.80;;;;;;;;;;4991659;28;20034;-83
2022/07/06 01:28:03;;;;;;;4.10;2.03;;;;;;;;;;4993821;28;20031;-83
2022/07/06 01:30:28;;;;;;;1.40;1.30;;;;;;;;;;4987444;28;20033;-84
2022/07/06 01:32:54;;;;;;;2.78;1.58;;;;;;;;;;4975318;28;20041;-84
2022/07/06 01:35:19;;;;;;;2.40;1.70;;;;;;;;;;4980357;28;20050;-83
2022/07/06 01:37:45;;;;;;;2.38;1.80;;;;;;;;;;4983647;28;20042;-84
2022/07/06 01:40:11;;;;;;;2.08;1.85;;;;;;;;;;4988582;28;20439;-84
2022/07/06 01:42:38;;;;;;;1.70;1.60;;;;;;;;;;4975114;28;20121;-84
2022/07/06 01:45:04;;;;;;;4.45;2.10;;;;;;;;;;4993603;28;20073;-84
2022/07/06 01:47:29;;;;;;;2.08;1.63;;;;;;;;;;4989733;28;20018;-85
2022/07/06 01:49:59;;;;;;;4.07;1.60;;;;;;;;;;4968507;28;20041;-84
2022/07/06 01:52:24;;;;;;;4.18;1.98;;;;;;;;;;4981068;28;20026;-84
2022/07/06 01:54:49;;;;;;;3.60;1.88;;;;;;;;;;4998773;28;20551;-83
2022/07/06 01:57:15;;;;;;;3.72;2.22;;;;;;;;;;4977567;28;20045;-84
2022/07/06 01:59:40;;;;;;;1.70;1.58;;;;;;;;;;4987324;28;20041;-84
2022/07/06 02:02:05;;;;;;;3.05;1.73;;;;;;;;;;4983729;28;20054;-84
2022/07/06 02:04:31;;;;;;;2.67;2.10;;;;;;;;;;4994174;28;20025;-84
2022/07/06 02:06:57;;;;;;;2.88;1.73;;;;;;;;;;4991587;28;20022;-84
2022/07/06 02:09:22;;;;;;;2.22;1.77;;;;;;;;;;4996524;28;20037;-84
2022/07/06 02:11:47;;;;;;;4.22;1.95;;;;;;;;;;4964970;28;20034;-83
2022/07/06 02:14:13;;;;;;;5.38;1.70;;;;;;;;;;4963630;28;20050;-84
2022/07/06 02:16:38;;;;;;;2.30;1.77;;;;;;;;;;4983721;28;20537;-83
2022/07/06 02:19:03;;;;;;;3.65;2.10;;;;;;;;;;4976217;28;20031;-83
2022/07/06 02:30:41;;;;;;;9.38;1.85;;;;;;;;;;4912721;29;20029;-84
2022/07/06 02:33:07;;;;;;;4.25;1.83;;;;;;;;;;4959703;28;20074;-84
2022/07/06 02:35:42;;;;;;;2.00;1.73;;;;;;;;;;4967568;28;20484;-83
2022/07/06 02:38:07;;;;;;;5.05;2.33;;;;;;;;;;4994832;28;20433;-84
2022/07/06 02:40:36;;;;;;;2.53;2.17;;;;;;;;;;5098894;23;20050;-83
2022/07/06 02:43:01;;;;;;;1.90;1.80;;;;;;;;;;5012554;28;20034;-83
2022/07/06 02:45:27;;;;;;;2.28;1.77;;;;;;;;;;5018541;28;20045;-83
2022/07/06 02:47:55;;;;;;;3.90;2.03;;;;;;;;;;5001410;28;20053;-83
2022/07/06 02:50:20;;;;;;;3.67;2.28;;;;;;;;;;5003071;28;20026;-83
2022/07/06 02:52:46;;;;;;;3.60;2.00;;;;;;;;;;4998132;28;20034;-83
2022/07/06 02:55:11;;;;;;;3.75;2.20;;;;;;;;;;4999552;28;20105;-82
2022/07/06 02:57:36;;;;;;;3.00;2.20;;;;;;;;;;4996076;28;20495;-84
2022/07/06 03:00:03;;;;;;;3.58;2.38;;;;;;;;;;4999277;28;20029;-83
2022/07/06 03:02:29;;;;;;;2.70;2.00;;;;;;;;;;4980425;28;20113;-84
2022/07/06 03:04:54;;;;;;;2.63;1.92;;;;;;;;;;4987208;28;20054;-83
2022/07/06 03:07:19;;;;;;;5.28;2.20;;;;;;;;;;4987260;28;20030;-83
2022/07/06 03:09:45;;;;;;;2.25;2.00;;;;;;;;;;4980250;28;20095;-83
2022/07/06 03:12:10;;;;;;;2.60;1.67;;;;;;;;;;4987727;28;20030;-83
2022/07/06 03:14:36;;;;;;;5.03;2.22;;;;;;;;;;4999240;28;20029;-82
2022/07/06 03:17:01;;;;;;;3.45;2.30;;;;;;;;;;4992271;28;20535;-83
2022/07/06 03:19:27;;;;;;;2.80;2.30;;;;;;;;;;4991071;28;20034;-83
2022/07/06 03:21:52;;;;;;;4.32;2.53;;;;;;;;;;4998381;28;20026;-83
2022/07/06 03:24:17;;;;;;;3.90;2.08;;;;;;;;;;4987843;28;20093;-83
2022/07/06 03:26:43;;;;;;;3.92;2.45;;;;;;;;;;4992477;28;20030;-83
2022/07/06 03:29:08;;;;;;;4.03;2.22;;;;;;;;;;4999200;28;20034;-83
2022/07/06 03:31:35;;;;;;;5.43;2.22;;;;;;;;;;4996087;28;20030;-83
2022/07/06 03:34:00;;;;;;;7.68;2.05;;;;;;;;;;4992479;28;20035;-84
2022/07/06 03:36:25;;;;;;;3.65;2.30;;;;;;;;;;4985322;28;20069;-83
2022/07/06 03:38:51;;;;;;;3.97;2.10;;;;;;;;;;4986055;28;20034;-83
2022/07/06 03:41:16;;;;;;;3.85;2.30;;;;;;;;;;4998134;28;20026;-83
2022/07/06 03:43:41;;;;;;;5.53;2.40;;;;;;;;;;4998151;28;20030;-82
2022/07/06 03:46:07;;;;;;;3.70;2.00;;;;;;;;;;4997755;28;20034;-83
2022/07/06 03:48:32;;;;;;;2.60;2.03;;;;;;;;;;4981367;28;20042;-83
2022/07/06 03:50:58;;;;;;;10.23;2.42;;;;;;;;;;4996051;28;20026;-83
2022/07/06 03:53:23;;;;;;;3.38;2.10;;;;;;;;;;5000468;28;20050;-82
2022/07/06 03:56:33;;;;;;;5.32;2.20;;;;;;;;;;4997324;28;20072;-82
2022/07/06 03:58:34;;;;;;;2.75;2.38;;;;;;;;;;4984925;28;20039;-85
2022/07/06 04:00:59;;;;;;;2.83;2.58;;;;;;;;;;4992546;28;20429;-84
2022/07/06 04:03:25;;;;;;;4.22;2.50;;;;;;;;;;4985895;28;20058;-84
2022/07/06 04:05:50;;;;;;;4.20;2.70;;;;;;;;;;4983906;28;20034;-82
2022/07/06 04:08:16;;;;;;;3.63;2.60;;;;;;;;;;4989842;28;20357;-83
2022/07/06 04:10:41;;;;;;;2.80;2.33;;;;;;;;;;4989238;28;20434;-82
2022/07/06 04:13:06;;;;;;;8.00;3.05;;;;;;;;;;4978987;28;20041;-82
2022/07/06 04:15:32;;;;;;;5.70;3.45;;;;;;;;;;4984668;28;20117;-83
2022/07/06 04:17:57;;;;;;;5.72;2.78;;;;;;;;;;4990809;28;20031;-83
2022/07/06 04:20:25;;;;;;;10.45;2.97;;;;;;;;;;4990259;28;20121;-82
2022/07/06 04:22:52;;;;;;;6.95;2.90;;;;;;;;;;4998061;28;20567;-82
2022/07/06 04:25:17;;;;;;;7.68;2.78;;;;;;;;;;4982386;28;20061;-82
2022/07/06 04:27:43;;;;;;;5.35;3.03;;;;;;;;;;4981175;28;20370;-84
2022/07/06 04:30:09;;;;;;;5.75;2.80;;;;;;;;;;4994959;28;20038;-84
2022/07/06 04:32:35;;;;;;;4.22;2.78;;;;;;;;;;4992726;28;20034;-85
2022/07/06 04:35:01;;;;;;;3.85;3.03;;;;;;;;;;4987072;28;20027;-84
2022/07/06 04:37:26;;;;;;;3.53;2.90;;;;;;;;;;4996031;28;20022;-84
2022/07/06 04:39:51;;;;;;;7.22;3.08;;;;;;;;;;4981410;28;20061;-83
2022/07/06 04:42:17;;;;;;;4.13;3.17;;;;;;;;;;4983361;28;20026;-83
2022/07/06 04:44:43;;;;;;;4.78;2.78;;;;;;;;;;4979323;28;20038;-83
2022/07/06 04:47:08;;;;;;;6.38;2.90;;;;;;;;;;4984912;28;20310;-83
2022/07/06 04:49:34;;;;;;;5.68;3.05;;;;;;;;;;4986170;28;20533;-83
2022/07/06 04:51:59;;;;;;;5.40;3.08;;;;;;;;;;4992667;28;20034;-83
2022/07/06 04:54:24;;;;;;;3.20;2.42;;;;;;;;;;4980842;28;20066;-83
2022/07/06 04:56:50;;;;;;;5.60;2.90;;;;;;;;;;4981427;28;20025;-83
2022/07/06 04:59:15;;;;;;;4.47;2.83;;;;;;;;;;4979112;28;20437;-82
2022/07/06 05:01:41;;;;;;;3.20;2.78;;;;;;;;;;4994489;28;20108;-83
2022/07/06 05:04:07;;;;;;;10.93;2.88;;;;;;;;;;4987954;28;20069;-83
2022/07/06 05:06:33;;;;;;;7.10;2.55;;;;;;;;;;4983191;28;20030;-83
2022/07/06 05:09:01;;;;;;;3.58;2.55;;;;;;;;;;5003324;23;20042;-83
2022/07/06 05:11:27;;;;;;;4.07;2.95;;;;;;;;;;4990495;28;20022;-83
2022/07/06 05:13:53;;;;;;;3.92;2.90;;;;;;;;;;4997277;28;20034;-84
2022/07/06 05:16:18;;;;;;;3.30;2.83;;;;;;;;;;4996709;28;20535;-84
2022/07/06 05:18:44;;;;;;;7.88;2.80;;;;;;;;;;4976027;28;20472;-82
2022/07/06 05:21:09;;;;;;;6.97;2.67;;;;;;;;;;4996540;28;20503;-82
2022/07/06 05:23:40;;;;;;;5.93;2.78;;;;;;;;;;5006311;23;20054;-83
2022/07/06 05:26:51;;;;;;;5.93;2.75;;;;;;;;;;4993398;28;20030;-82
2022/07/06 05:29:16;;;;;;;9.10;2.97;;;;;;;;;;4987811;28;20100;-84
2022/07/06 05:31:42;;;;;;;7.50;3.25;;;;;;;;;;5000421;28;20056;-83
2022/07/06 05:34:07;;;;;;;6.63;2.95;;;;;;;;;;4954724;28;20027;-85
2022/07/06 05:36:33;;;;;;;6.95;2.80;;;;;;;;;;4980165;28;20046;-84
2022/07/06 05:38:58;;;;;;;3.45;2.45;;;;;;;;;;4975667;28;20109;-85
2022/07/06 05:41:23;;;;;;;5.03;2.80;;;;;;;;;;4964241;28;20057;-83
2022/07/06 05:43:49;;;;;;;3.72;2.50;;;;;;;;;;4974782;28;20389;-83
2022/07/06 05:46:17;;;;;;;3.95;2.63;;;;;;;;;;4982254;28;20058;-83
2022/07/06 05:51:28;;;;;;;4.80;2.50;;;;;;;;;;4964612;28;20305;-83
2022/07/06 05:54:00;;;;;;;4.03;2.90;;;;;;;;;;4970774;28;20117;-84
2022/07/06 05:56:25;;;;;;;4.53;2.40;;;;;;;;;;4976704;28;20027;-83
2022/07/06 05:58:50;;;;;;;3.00;2.70;;;;;;;;;;4951028;29;20038;-85
2022/07/06 06:01:19;;;;;;;6.90;2.45;;;;;;;;;;4946496;28;20170;-84
2022/07/06 06:03:46;;;;;;;3.72;2.40;;;;;;;;;;4962609;28;20435;-84
2022/07/06 06:06:12;;;;;;;14.63;3.00;;;;;;;;;;4974893;28;20094;-85
2022/07/06 06:08:39;;;;;;;3.15;2.30;;;;;;;;;;4970469;28;20027;-84
2022/07/06 06:11:10;;;;;;;6.57;2.33;;;;;;;;;;4977589;28;20038;-84
2022/07/06 06:13:35;;;;;;;3.20;2.33;;;;;;;;;;4963217;28;20034;-84
2022/07/06 06:16:01;;;;;;;9.95;2.50;;;;;;;;;;4981062;28;20031;-84
2022/07/06 06:18:26;;;;;;;8.27;2.28;;;;;;;;;;4964997;28;20031;-84
2022/07/06 06:20:52;;;;;;;7.07;2.53;;;;;;;;;;4979612;28;20042;-83
2022/07/06 06:23:17;;;;;;;2.92;2.20;;;;;;;;;;4963192;28;20045;-85
2022/07/06 06:25:43;;;;;;;4.57;2.50;;;;;;;;;;4983795;28;20473;-84
2022/07/06 06:28:10;;;;;;;4.10;2.28;;;;;;;;;;4970528;28;20501;-84
2022/07/06 06:30:36;;;;;;;4.85;2.30;;;;;;;;;;4976675;28;20027;-84
2022/07/06 06:33:22;;;;;;;5.28;2.17;;;;;;;;;;4977987;28;20119;-81
2022/07/06 06:35:52;;;;;;;3.78;2.58;;;;;;;;;;4962967;28;20046;-82
2022/07/06 06:38:19;;;;;;;4.47;2.60;;;;;;;;;;4949651;29;20093;-84
2022/07/06 06:40:45;;;;;;;4.68;2.53;;;;;;;;;;4959786;28;20023;-84
2022/07/06 06:43:11;;;;;;;3.88;2.35;;;;;;;;;;4963259;28;20027;-86
2022/07/06 06:45:36;;;;;;;7.35;2.42;;;;;;;;;;4980912;28;20045;-82
2022/07/06 06:48:02;;;;;;;5.38;2.35;;;;;;;;;;4977535;28;20042;-83
2022/07/06 06:50:28;;;;;;;5.60;2.33;;;;;;;;;;4978578;28;20100;-83
2022/07/06 06:52:53;;;;;;;3.92;2.13;;;;;;;;;;4980026;28;20037;-83
2022/07/06 06:55:19;;;;;;;6.03;2.38;;;;;;;;;;4965148;28;20035;-83
2022/07/06 06:57:44;;;;;;;5.18;2.03;;;;;;;;;;4962123;29;20026;-83
2022/07/06 07:00:11;;;;;;;3.88;2.20;;;;;;;;;;4961433;29;20027;-83
2022/07/06 07:02:36;;;;;;;3.83;1.90;;;;;;;;;;4983555;28;20081;-83
2022/07/06 07:05:03;;;;;;;3.85;2.05;;;;;;;;;;4973241;28;20030;-83
2022/07/06 07:07:28;;;;;;;5.40;2.17;;;;;;;;;;4979604;28;20038;-83
2022/07/06 07:09:54;;;;;;;5.35;1.92;;;;;;;;;;4964904;28;20018;-84
2022/07/06 07:12:19;;;;;;;3.65;2.13;;;;;;;;;;4980948;28;20056;-84
2022/07/06 07:14:47;;;;;;;5.13;2.38;;;;;;;;;;4963232;28;20058;-83
2022/07/06 07:17:12;;;;;;;8.30;2.28;;;;;;;;;;4981333;28;20094;-83
2022/07/06 07:19:38;;;;;;;2.05;1.88;;;;;;;;;;4972310;28;20054;-83
2022/07/06 07:22:04;;;;;;;3.83;2.13;;;;;;;;;;4979910;28;20027;-85
2022/07/06 07:24:29;;;;;;;2.88;1.75;;;;;;;;;;4969292;28;20412;-83
2022/07/06 07:26:55;;;;;;;7.60;2.00;;;;;;;;;;4948680;28;20050;-85
2022/07/06 07:29:20;;;;;;;4.32;2.00;;;;;;;;;;4943611;29;20027;-85
2022/07/06 07:31:46;;;;;;;5.53;2.38;;;;;;;;;;4983526;28;20031;-83
2022/07/06 07:34:11;;;;;;;5.22;2.17;;;;;;;;;;4968605;28;20418;-83
2022/07/06 07:36:37;;;;;;;3.35;2.08;;;;;;;;;;4976237;28;20074;-83
2022/07/06 07:39:03;;;;;;;4.63;1.90;;;;;;;;;;4957181;28;20041;-82
2022/07/06 07:41:29;;;;;;;3.17;1.75;;;;;;;;;;4979245;28;20046;-83
2022/07/06 07:43:54;;;;;;;6.03;2.20;;;;;;;;;;4960659;28;20018;-84
2022/07/06 07:46:20;;;;;;;8.43;2.50;;;;;;;;;;4950509;28;20469;-85
2022/07/06 07:48:45;;;;;;;3.58;1.90;;;;;;;;;;4964657;28;20035;-84
2022/07/06 07:51:11;;;;;;;4.97;2.30;;;;;;;;;;4951327;28;20026;-83
2022/07/06 07:53:39;;;;;;;4.78;2.17;;;;;;;;;;4969089;28;20544;-83
2022/07/06 07:56:05;;;;;;;3.78;2.22;;;;;;;;;;4960492;28;20062;-83
2022/07/06 07:58:30;;;;;;;4.95;2.22;;;;;;;;;;4952912;28;20035;-84
2022/07/06 08:00:56;;;;;;;4.18;1.83;;;;;;;;;;4970331;28;20056;-82
2022/07/06 08:03:27;;;;;;;2.03;1.80;;;;;;;;;;4955472;28;20114;-83
2022/07/06 08:05:52;;;;;;;2.83;2.10;;;;;;;;;;4975482;28;20440;-84
2022/07/06 08:08:20;;;;;;;3.35;2.13;;;;;;;;;;4971773;28;20413;-83
2022/07/06 08:11:09;;;;;;;3.20;1.88;;;;;;;;;;4960882;28;20062;-83
2022/07/06 08:14:23;;;;;;;3.78;1.85;;;;;;;;;;5007301;23;20074;-82
2022/07/06 08:16:54;;;;;;;5.03;2.00;;;;;;;;;;4998704;28;20041;-83
2022/07/06 08:19:41;;;;;;;3.67;2.05;;;;;;;;;;4997853;28;20049;-82
2022/07/06 08:22:19;;;;;;;5.80;1.75;;;;;;;;;;4999982;28;20420;-84
2022/07/06 08:25:13;;;;;;;6.05;2.00;;;;;;;;;;5000821;28;20037;-83
2022/07/06 08:31:19;;;;;;;3.90;1.88;;;;;;;;;;5019162;28;20037;-83
2022/07/06 08:46:43;;;;;;;2.35;2.00;;;;;;;;;;4969243;28;20043;-82
2022/07/06 08:49:13;;;;;;;4.25;1.98;;;;;;;;;;4957315;29;20035;-84
2022/07/06 08:51:50;;;;;;;6.10;2.10;;;;;;;;;;4974402;28;20412;-82
2022/07/06 08:54:18;;;;;;;2.33;2.08;;;;;;;;;;4954336;29;20127;-83
2022/07/06 08:57:14;;;;;;;4.25;1.95;;;;;;;;;;4950625;29;20167;-82
2022/07/06 08:59:50;;;;;;;3.80;2.08;;;;;;;;;;4967330;29;20047;-84
2022/07/06 09:02:17;;;;;;;5.40;1.98;;;;;;;;;;4955818;28;20036;-83
2022/07/06 09:04:43;;;;;;;3.92;1.83;;;;;;;;;;4951337;29;20107;-84
2022/07/06 09:07:11;;;;;;;2.78;1.95;;;;;;;;;;4962388;28;20507;-83
2022/07/06 09:09:46;;;;;;;2.17;1.70;;;;;;;;;;4974952;28;20059;-84
2022/07/06 09:12:56;;;;;;;3.65;1.98;;;;;;;;;;4961382;23;20027;-85
2022/07/06 09:15:03;;;;;;;2.10;1.90;;;;;;;;;;4973951;28;20055;-83
2022/07/06 09:17:54;;;;;;;4.18;2.15;;;;;;;;;;4982328;28;20034;-82
2022/07/06 09:20:20;;;;;;;3.50;2.07;;;;;;;;;;4971549;28;20038;-85
2022/07/06 09:22:48;;;;;;;5.57;2.10;;;;;;;;;;4977645;28;20046;-82
2022/07/06 09:25:40;;;;;;;3.67;1.80;;;;;;;;;;4958847;29;20023;-81
2022/07/06 09:28:46;;;;;;;2.20;1.80;;;;;;;;;;4949863;28;20051;-80
2022/07/06 09:31:55;;;;;;;4.18;2.60;;;;;;;;;;4959981;29;20039;-81
2022/07/06 09:34:44;;;;;;;3.97;2.05;;;;;;;;;;4997054;23;20332;-84
2022/07/06 09:37:58;;;;;;;6.47;2.13;;;;;;;;;;4954104;29;20032;-82
2022/07/06 09:40:56;;;;;;;5.22;2.20;;;;;;;;;;4987428;28;20039;-84
2022/07/06 09:43:30;;;;;;;4.90;2.15;;;;;;;;;;5037818;23;20042;-83
2022/07/06 09:46:01;;;;;;;3.00;2.00;;;;;;;;;;4987296;28;20043;-82
2022/07/06 09:48:34;;;;;;;2.33;1.90;;;;;;;;;;4977524;28;20031;-85
2022/07/06 09:51:15;;;;;;;8.63;2.70;;;;;;;;;;4960495;28;20747;-85
2022/07/06 09:53:41;;;;;;;6.05;1.80;;;;;;;;;;5010247;23;20107;-83
2022/07/06 09:56:09;;;;;;;5.00;2.20;;;;;;;;;;4999669;28;20541;-83
2022/07/06 09:59:12;;;;;;;4.28;2.38;;;;;;;;;;5035805;28;20472;-84
2022/07/06 10:01:39;;;;;;;5.40;2.38;;;;;;;;;;5020897;28;20022;-84
2022/07/06 10:04:49;;;;;;;6.85;2.10;;;;;;;;;;4996182;28;20030;-84
2022/07/06 10:07:18;;;;;;;2.83;2.25;;;;;;;;;;5010241;28;20026;-83
2022/07/06 10:09:46;;;;;;;3.75;1.80;;;;;;;;;;5013400;28;20034;-84
2022/07/06 10:12:13;;;;;;;2.50;2.10;;;;;;;;;;4996866;28;20097;-84
2022/07/06 10:14:51;;;;;;;3.45;2.05;;;;;;;;;;4998889;28;20053;-84
2022/07/06 10:17:42;;;;;;;4.57;1.88;;;;;;;;;;4987739;28;20026;-84
2022/07/06 10:20:07;;;;;;;4.78;2.13;;;;;;;;;;5009556;28;20459;-84
2022/07/06 10:22:34;;;;;;;3.97;1.95;;;;;;;;;;5001915;28;20444;-83
2022/07/06 10:25:01;;;;;;;4.78;2.55;;;;;;;;;;5019811;28;20025;-84
2022/07/06 10:27:28;;;;;;;2.80;2.10;;;;;;;;;;5020056;28;20026;-86
2022/07/06 10:29:53;;;;;;;8.88;1.95;;;;;;;;;;5019912;28;20175;-84
2022/07/06 10:32:21;;;;;;;6.95;2.22;;;;;;;;;;5012705;28;20042;-84
2022/07/06 10:34:47;;;;;;;4.28;2.38;;;;;;;;;;5004005;28;20040;-83
2022/07/06 10:37:27;;;;;;;4.15;1.80;;;;;;;;;;4991374;28;20045;-83
2022/07/06 10:48:12;;;;;;;3.35;1.83;;;;;;;;;;4973834;28;20050;-81
2022/07/06 10:57:36;;;;;;;2.25;1.95;;;;;;;;;;4893707;29;20105;-85
2022/07/06 11:00:24;;;;;;;2.25;1.92;;;;;;;;;;4994804;23;20050;-83
2022/07/06 11:03:34;;;;;;;2.97;1.92;;;;;;;;;;4959318;28;20046;-85
2022/07/06 11:13:26;;;;;;;5.63;1.90;;;;;;;;;;4962337;29;20045;-84
2022/07/06 11:16:00;;;;;;;4.65;1.90;;;;;;;;;;4962978;29;20397;-85
2022/07/06 11:18:25;;;;;;;7.03;2.10;;;;;;;;;;4945167;28;20244;-85
2022/07/06 11:21:20;;;;;;;4.05;1.70;;;;;;;;;;4982836;28;20057;-84
2022/07/06 11:23:48;;;;;;;3.05;2.35;;;;;;;;;;4966703;28;20031;-85
2022/07/06 11:30:22;;;;;;;2.75;2.08;;;;;;;;;;4902898;29;20603;-85
2022/07/06 11:33:27;;;;;;;2.95;1.98;;;;;;;;;;4903598;29;20044;-83
2022/07/06 11:36:10;;;;;;;5.15;2.45;;;;;;;;;;4903619;29;20055;-84
2022/07/06 11:39:08;;;;;;;3.60;2.58;;;;;;;;;;4970320;28;20509;-82
2022/07/06 11:42:03;;;;;;;3.38;2.67;;;;;;;;;;4912167;29;20055;-83
2022/07/06 11:44:29;;;;;;;4.55;2.10;;;;;;;;;;4961902;28;20026;-86
2022/07/06 11:46:56;;;;;;;3.90;2.00;;;;;;;;;;4978930;28;20110;-85
2022/07/06 11:49:22;;;;;;;4.10;2.00;;;;;;;;;;4980984;28;20516;-83
2022/07/06 11:51:56;;;;;;;5.55;2.10;;;;;;;;;;4978484;28;20022;-83
2022/07/06 11:54:23;;;;;;;2.65;1.90;;;;;;;;;;4966789;28;20035;-82
2022/07/06 11:56:53;;;;;;;4.72;2.00;;;;;;;;;;4990529;28;20022;-83
2022/07/06 11:59:24;;;;;;;6.72;2.05;;;;;;;;;;4977775;28;20045;-85
2022/07/06 12:01:56;;;;;;;6.55;2.08;;;;;;;;;;4979278;28;20094;-83
2022/07/06 12:04:24;;;;;;;4.32;2.03;;;;;;;;;;4978738;28;20034;-84
2022/07/06 12:06:49;;;;;;;4.43;2.22;;;;;;;;;;4960538;28;20027;-82
2022/07/06 12:09:15;;;;;;;6.30;1.98;;;;;;;;;;4977858;28;20508;-84
2022/07/06 12:11:46;;;;;;;4.32;2.10;;;;;;;;;;4975745;28;20038;-83
2022/07/06 12:14:19;;;;;;;6.07;2.05;;;;;;;;;;4978496;28;20117;-84
2022/07/06 12:16:45;;;;;;;3.75;1.90;;;;;;;;;;4959586;28;20022;-82
2022/07/06 12:19:12;;;;;;;5.32;2.35;;;;;;;;;;4955027;28;20173;-83
2022/07/06 12:21:49;;;;;;;4.13;2.35;;;;;;;;;;4977870;28;20404;-82
2022/07/06 12:24:24;;;;;;;3.13;2.10;;;;;;;;;;4973636;28;20035;-82
2022/07/06 12:26:50;;;;;;;4.75;1.92;;;;;;;;;;4977678;28;20034;-83
2022/07/06 12:29:17;;;;;;;5.50;2.17;;;;;;;;;;4974408;28;20029;-82
2022/07/06 12:31:49;;;;;;;3.95;2.15;;;;;;;;;;4978758;28;20109;-82
2022/07/06 12:34:20;;;;;;;4.03;1.90;;;;;;;;;;4974344;28;20179;-82
2022/07/06 12:40:57;;;;;;;16.92;2.60;;;;;;;;;;4976460;28;20041;-82
2022/07/06 12:43:40;;;;;;;4.03;2.17;;;;;;;;;;4976671;28;20501;-81
2022/07/06 12:46:31;;;;;;;2.97;1.80;;;;;;;;;;4975100;28;20023;-82
2022/07/06 12:49:00;;;;;;;2.88;1.88;;;;;;;;;;4975874;28;20046;-81
2022/07/06 12:51:26;;;;;;;3.55;1.80;;;;;;;;;;4977160;28;20121;-82
2022/07/06 12:54:12;;;;;;;3.15;1.90;;;;;;;;;;4975746;28;20510;-82
2022/07/06 12:56:57;;;;;;;4.38;1.90;;;;;;;;;;4976843;28;20030;-82
2022/07/06 12:59:23;;;;;;;2.97;1.60;;;;;;;;;;4967941;28;20366;-82
2022/07/06 13:01:56;;;;;;;3.97;1.77;;;;;;;;;;4976224;28;20078;-83
2022/07/06 13:04:56;;;;;;;3.50;1.80;;;;;;;;;;4978177;28;20485;-83
2022/07/06 13:07:23;;;;;;;6.32;1.92;;;;;;;;;;4957003;28;20054;-82
2022/07/06 13:09:49;;;;;;;2.50;1.75;;;;;;;;;;4976770;28;20048;-82
2022/07/06 13:12:14;;;;;;;3.58;1.65;;;;;;;;;;4976209;28;20166;-83
2022/07/06 13:14:39;;;;;;;1.95;1.50;;;;;;;;;;4989284;28;20027;-83
2022/07/06 13:17:07;;;;;;;4.53;1.70;;;;;;;;;;4960892;28;20032;-81
2022/07/06 13:19:32;;;;;;;4.75;1.60;;;;;;;;;;4958513;28;20030;-82
2022/07/06 13:22:04;;;;;;;1.40;1.30;;;;;;;;;;4974818;28;20037;-82
2022/07/06 13:24:30;;;;;;;8.65;1.80;;;;;;;;;;4976689;28;20038;-82
2022/07/06 13:26:57;;;;;;;4.15;1.67;;;;;;;;;;4972318;28;20027;-82
2022/07/06 13:29:25;;;;;;;3.53;1.60;;;;;;;;;;4974671;28;20429;-81
2022/07/06 13:31:50;;;;;;;1.65;1.45;;;;;;;;;;4974818;28;20058;-82
2022/07/06 13:34:16;;;;;;;2.85;1.50;;;;;;;;;;4975917;28;20030;-82
2022/07/06 13:36:42;;;;;;;6.00;1.65;;;;;;;;;;4966954;28;20034;-82
2022/07/06 13:39:08;;;;;;;5.43;1.60;;;;;;;;;;4976013;28;20026;-81
2022/07/06 13:41:34;;;;;;;1.95;1.25;;;;;;;;;;4977267;28;20034;-82
2022/07/06 13:44:03;;;;;;;3.25;1.70;;;;;;;;;;4976518;28;20031;-82
2022/07/06 13:46:30;;;;;;;1.30;1.20;;;;;;;;;;4977965;28;20489;-82
2022/07/06 13:48:57;;;;;;;7.30;2.22;;;;;;;;;;4976810;28;20023;-81
2022/07/06 13:51:23;;;;;;;2.80;1.45;;;;;;;;;;4977646;28;20362;-82
2022/07/06 13:53:49;;;;;;;5.65;1.67;;;;;;;;;;4980558;28;20027;-81
2022/07/06 13:56:14;;;;;;;5.22;1.65;;;;;;;;;;4977953;28;20079;-82
2022/07/06 13:58:40;;;;;;;2.30;1.52;;;;;;;;;;4980411;28;20082;-82
2022/07/06 14:01:05;;;;;;;2.63;1.85;;;;;;;;;;4980993;28;20058;-82
2022/07/06 14:03:31;;;;;;;4.63;1.77;;;;;;;;;;4981253;28;20067;-80
2022/07/06 14:06:01;;;;;;;5.50;1.60;;;;;;;;;;4979590;28;20042;-82
2022/07/06 14:08:27;;;;;;;5.10;1.60;;;;;;;;;;4980857;28;20496;-81
2022/07/06 14:10:53;;;;;;;2.55;1.65;;;;;;;;;;4982080;28;20030;-82
2022/07/06 14:13:19;;;;;;;2.70;1.40;;;;;;;;;;4963998;28;20030;-81
2022/07/06 14:15:44;;;;;;;5.78;1.40;;;;;;;;;;4981122;28;20117;-82
2022/07/06 14:18:10;;;;;;;3.65;1.45;;;;;;;;;;4980075;28;20078;-81
2022/07/06 14:20:54;;;;;;;6.00;1.40;;;;;;;;;;4980554;28;20031;-81
2022/07/06 14:23:20;;;;;;;1.52;1.40;;;;;;;;;;4963256;28;20022;-82
2022/07/06 14:29:32;;;;;;;2.70;1.80;;;;;;;;;;4928063;28;20037;-82
2022/07/06 14:31:58;;;;;;;4.03;1.42;;;;;;;;;;4963630;28;20062;-82
2022/07/06 14:34:23;;;;;;;1.67;1.30;;;;;;;;;;4980573;28;20082;-82
2022/07/06 14:36:49;;;;;;;1.40;1.30;;;;;;;;;;4980821;28;20027;-82
2022/07/06 14:39:15;;;;;;;3.50;1.30;;;;;;;;;;4980941;28;20327;-82
2022/07/06 14:41:40;;;;;;;5.00;1.77;;;;;;;;;;4980148;28;20026;-83
2022/07/06 14:44:06;;;;;;;2.97;1.30;;;;;;;;;;4974544;28;20488;-82
2022/07/06 14:46:31;;;;;;;6.20;1.42;;;;;;;;;;4980491;28;20027;-81
2022/07/06 14:48:57;;;;;;;5.25;1.52;;;;;;;;;;4971391;28;20063;-81
2022/07/06 14:51:22;;;;;;;1.40;1.30;;;;;;;;;;4985311;28;20027;-81
2022/07/06 14:53:48;;;;;;;1.52;1.40;;;;;;;;;;4980519;28;20031;-81
2022/07/06 14:56:13;;;;;;;1.95;1.30;;;;;;;;;;4979638;28;20026;-81
2022/07/06 14:58:39;;;;;;;3.00;1.48;;;;;;;;;;4979540;28;20027;-81
2022/07/06 15:01:04;;;;;;;3.30;1.45;;;;;;;;;;4980087;28;20050;-81
2022/07/06 15:03:30;;;;;;;1.98;1.30;;;;;;;;;;4978328;28;20050;-81
2022/07/06 15:05:55;;;;;;;1.67;1.20;;;;;;;;;;4977038;28;20041;-81
2022/07/06 15:08:21;;;;;;;1.52;1.42;;;;;;;;;;4978987;28;20018;-81
2022/07/06 15:10:46;;;;;;;3.00;1.40;;;;;;;;;;4977972;28;20026;-82
2022/07/06 15:13:12;;;;;;;1.83;1.38;;;;;;;;;;4979765;28;20023;-82
2022/07/06 15:15:37;;;;;;;1.60;1.38;;;;;;;;;;4979845;28;20037;-82
2022/07/06 15:18:04;;;;;;;1.50;1.40;;;;;;;;;;4979624;28;20106;-82
2022/07/06 15:20:30;;;;;;;5.07;1.27;;;;;;;;;;4979645;28;20037;-82
2022/07/06 15:22:55;;;;;;;4.28;1.48;;;;;;;;;;4980223;28;20113;-82
2022/07/06 15:25:22;;;;;;;1.15;1.05;;;;;;;;;;4979766;28;20046;-82
2022/07/06 15:27:47;;;;;;;2.47;1.20;;;;;;;;;;4979242;28;20102;-82
2022/07/06 15:30:13;;;;;;;2.17;1.48;;;;;;;;;;4979827;28;20414;-81
2022/07/06 15:32:38;;;;;;;2.97;1.42;;;;;;;;;;4978738;28;20027;-82
2022/07/06 15:35:05;;;;;;;1.23;1.13;;;;;;;;;;4978701;28;20041;-82
2022/07/06 15:37:33;;;;;;;7.20;1.75;;;;;;;;;;4960614;28;20616;-82
2022/07/06 15:39:59;;;;;;;2.08;1.33;;;;;;;;;;4978989;28;20497;-82
2022/07/06 15:42:24;;;;;;;1.73;1.60;;;;;;;;;;4979614;28;20023;-81
2022/07/06 15:44:51;;;;;;;1.60;1.15;;;;;;;;;;4980148;28;20051;-82
2022/07/06 15:47:17;;;;;;;3.35;1.20;;;;;;;;;;4980065;28;20028;-82
2022/07/06 15:49:43;;;;;;;2.92;1.35;;;;;;;;;;4979196;28;20054;-82
2022/07/06 15:52:08;;;;;;;4.35;1.30;;;;;;;;;;4979994;28;20030;-82
2022/07/06 15:54:33;;;;;;;4.30;1.40;;;;;;;;;;4979795;28;20026;-84
2022/07/06 15:56:59;;;;;;;2.47;1.20;;;;;;;;;;4981421;28;20050;-82